Time;durP1;ratioP1;P1;durP2;ratioP2;P2;SDS_P1;SDS_P2;PMS_P1;PMS_P2;Temp;Humidity;BMP_temperature;BMP_pressure;BME280_temperature;BME280_humidity;BME280_pressure;Samples;Min_cycle;Max_cycle;Signal;HPM_P1;HPM_P2
2023/06/07 00:00:26;;;;;;;3.92;3.63;;;17.70;99.90;;;;;;4926837;28;20066;-65
2023/06/07 00:02:53;;;;;;;4.18;3.67;;;17.70;99.90;;;;;;4932290;28;20488;-65
2023/06/07 00:05:21;;;;;;;5.20;4.70;;;17.70;99.90;;;;;;4929727;28;20538;-65
2023/06/07 00:07:47;;;;;;;4.85;3.45;;;17.70;99.90;;;;;;4923014;28;20050;-65
2023/06/07 00:10:13;;;;;;;4.30;4.00;;;17.70;99.90;;;;;;4927984;28;20035;-66
2023/06/07 00:12:38;;;;;;;5.20;3.63;;;17.70;99.90;;;;;;4930224;28;20036;-69
2023/06/07 00:15:05;;;;;;;5.93;3.70;;;17.70;99.90;;;;;;4931435;28;20476;-65
2023/06/07 00:17:32;;;;;;;7.55;4.00;;;17.70;99.90;;;;;;4930122;28;20028;-66
2023/06/07 00:19:57;;;;;;;4.55;4.15;;;17.70;99.90;;;;;;4930987;28;20471;-66
2023/06/07 00:22:23;;;;;;;4.80;4.30;;;17.70;99.90;;;;;;4929439;28;20035;-65
2023/06/07 00:24:52;;;;;;;5.03;4.07;;;17.70;99.90;;;;;;4923823;28;20035;-65
2023/06/07 00:27:18;;;;;;;4.63;3.97;;;17.70;99.90;;;;;;4928595;28;20043;-65
2023/06/07 00:29:44;;;;;;;4.43;4.03;;;17.70;99.90;;;;;;4913789;28;20035;-66
2023/06/07 00:32:12;;;;;;;5.70;4.53;;;17.70;99.90;;;;;;4934386;28;20407;-65
2023/06/07 00:34:39;;;;;;;4.60;4.20;;;17.70;99.90;;;;;;4928571;28;20106;-65
2023/06/07 00:37:04;;;;;;;6.78;4.55;;;17.70;99.90;;;;;;4933241;28;20476;-65
2023/06/07 00:39:30;;;;;;;4.72;4.22;;;17.70;99.90;;;;;;4923130;28;20140;-65
2023/06/07 00:41:56;;;;;;;4.25;3.78;;;17.70;99.90;;;;;;4916319;28;20047;-66
2023/06/07 00:44:22;;;;;;;4.68;4.05;;;17.70;99.90;;;;;;4927648;28;20054;-66
2023/06/07 00:46:51;;;;;;;4.30;3.85;;;17.60;99.90;;;;;;4930065;28;20441;-66
2023/06/07 00:49:17;;;;;;;7.18;4.15;;;17.60;99.90;;;;;;4930017;28;20073;-66
2023/06/07 00:51:44;;;;;;;4.90;4.10;;;17.60;99.90;;;;;;4927036;28;20154;-66
2023/06/07 00:54:10;;;;;;;4.68;4.28;;;17.60;99.90;;;;;;4929142;28;20081;-65
2023/06/07 00:56:36;;;;;;;5.70;4.15;;;17.60;99.90;;;;;;4927365;28;20038;-66
2023/06/07 00:59:03;;;;;;;8.95;4.13;;;17.60;99.90;;;;;;4931686;28;20058;-66
2023/06/07 01:01:29;;;;;;;6.00;4.78;;;17.60;99.90;;;;;;4929963;28;20031;-66
2023/06/07 01:03:55;;;;;;;5.05;4.47;;;17.60;99.90;;;;;;4930673;28;20085;-68
2023/06/07 01:06:24;;;;;;;5.03;4.63;;;17.60;99.90;;;;;;4929719;28;20038;-69
2023/06/07 01:08:51;;;;;;;5.65;4.18;;;17.50;99.90;;;;;;4929487;28;20043;-68
2023/06/07 01:11:21;;;;;;;7.07;4.30;;;17.50;99.90;;;;;;4933946;28;20018;-68
2023/06/07 01:13:47;;;;;;;7.03;4.18;;;17.50;99.90;;;;;;4929849;28;20038;-70
2023/06/07 01:16:13;;;;;;;5.32;4.22;;;17.60;99.90;;;;;;4918282;28;20110;-71
2023/06/07 01:18:41;;;;;;;4.40;4.00;;;17.60;99.90;;;;;;4928713;28;20041;-70
2023/06/07 01:21:12;;;;;;;5.30;4.18;;;17.60;99.90;;;;;;4933373;28;20036;-66
2023/06/07 01:23:38;;;;;;;4.53;4.13;;;17.60;99.90;;;;;;4927810;28;20522;-65
2023/06/07 01:26:04;;;;;;;4.78;4.30;;;17.60;99.90;;;;;;4929758;28;20068;-65
2023/06/07 01:28:37;;;;;;;4.80;4.40;;;17.60;99.90;;;;;;4927292;28;20036;-66
2023/06/07 01:31:03;;;;;;;7.25;4.10;;;17.60;99.90;;;;;;4927712;28;20058;-66
2023/06/07 01:33:32;;;;;;;6.10;4.55;;;17.60;99.90;;;;;;4919069;28;20609;-65
2023/06/07 01:35:59;;;;;;;6.00;4.60;;;17.60;99.90;;;;;;4928835;28;20031;-66
2023/06/07 01:38:27;;;;;;;4.45;4.05;;;17.60;99.90;;;;;;4924563;28;20134;-66
2023/06/07 01:40:54;;;;;;;7.90;4.95;;;17.60;99.90;;;;;;4930726;28;20035;-70
2023/06/07 01:43:21;;;;;;;6.40;5.78;;;17.60;99.90;;;;;;4929212;28;20031;-71
2023/06/07 01:45:48;;;;;;;4.63;4.20;;;17.60;99.90;;;;;;4930983;28;20628;-70
2023/06/07 01:48:15;;;;;;;5.88;4.60;;;17.60;99.90;;;;;;4930096;28;20367;-71
2023/06/07 01:50:41;;;;;;;5.88;4.63;;;17.60;99.90;;;;;;4931755;28;20036;-70
2023/06/07 01:53:06;;;;;;;4.72;4.35;;;17.60;99.90;;;;;;4932019;28;20044;-71
2023/06/07 01:55:32;;;;;;;4.25;3.90;;;17.60;99.90;;;;;;4927400;28;20047;-70
2023/06/07 01:58:36;;;;;;;5.30;4.80;;;17.60;99.90;;;;;;4932669;28;20062;-70
2023/06/07 02:01:16;;;;;;;6.85;6.05;;;17.60;99.90;;;;;;4936368;28;20040;-70
2023/06/07 02:03:45;;;;;;;7.07;4.38;;;17.60;99.90;;;;;;4940672;28;20515;-70
2023/06/07 02:06:16;;;;;;;6.60;4.90;;;17.60;99.90;;;;;;4944169;28;20478;-70
2023/06/07 02:08:51;;;;;;;4.43;4.03;;;17.60;99.90;;;;;;4941902;28;20050;-70
2023/06/07 02:11:17;;;;;;;5.13;4.65;;;17.60;99.90;;;;;;4938961;28;20412;-70
2023/06/07 02:13:44;;;;;;;4.43;4.03;;;17.60;99.90;;;;;;4940368;28;20047;-71
2023/06/07 02:16:11;;;;;;;6.80;4.45;;;17.60;99.90;;;;;;4939395;28;20190;-71
2023/06/07 02:18:40;;;;;;;4.50;4.10;;;17.60;99.90;;;;;;4936048;28;20256;-70
2023/06/07 02:21:09;;;;;;;4.70;4.28;;;17.70;99.90;;;;;;4942498;28;20452;-71
2023/06/07 02:23:36;;;;;;;4.90;4.40;;;17.70;99.90;;;;;;4923326;28;20439;-70
2023/06/07 02:26:03;;;;;;;5.05;4.65;;;17.60;99.90;;;;;;4942155;28;20180;-70
2023/06/07 02:28:29;;;;;;;5.90;5.10;;;17.60;99.90;;;;;;4933953;28;20041;-70
2023/06/07 02:30:56;;;;;;;5.30;4.80;;;17.70;99.90;;;;;;4939132;28;20020;-70
2023/06/07 02:33:24;;;;;;;9.73;5.45;;;17.60;99.90;;;;;;4936446;28;20251;-70
2023/06/07 02:35:50;;;;;;;5.57;4.93;;;17.60;99.90;;;;;;4938140;28;20079;-65
2023/06/07 02:38:15;;;;;;;10.20;5.05;;;17.60;99.90;;;;;;4927496;28;20470;-65
2023/06/07 02:40:41;;;;;;;5.53;5.03;;;17.60;99.90;;;;;;4935204;28;20051;-66
2023/06/07 02:43:06;;;;;;;5.93;5.35;;;17.60;99.90;;;;;;4932626;28;20059;-65
2023/06/07 02:45:32;;;;;;;5.68;5.22;;;17.50;99.90;;;;;;4934240;28;20051;-65
2023/06/07 02:47:58;;;;;;;5.60;4.82;;;17.50;99.90;;;;;;4930255;28;20038;-66
2023/06/07 02:50:23;;;;;;;6.80;4.80;;;17.60;99.90;;;;;;4936790;28;20034;-65
2023/06/07 02:52:50;;;;;;;5.70;5.03;;;17.60;99.90;;;;;;4936063;28;20068;-65
2023/06/07 02:55:16;;;;;;;5.20;4.53;;;17.60;99.90;;;;;;4934825;28;20047;-67
2023/06/07 02:57:42;;;;;;;7.05;5.57;;;17.60;99.90;;;;;;4934986;28;20543;-71
2023/06/07 03:00:10;;;;;;;5.68;4.95;;;17.60;99.90;;;;;;4940796;28;20601;-71
2023/06/07 03:02:37;;;;;;;5.40;4.90;;;17.60;99.90;;;;;;4935214;28;20039;-70
2023/06/07 03:05:04;;;;;;;6.00;5.50;;;17.60;99.90;;;;;;4934937;28;20051;-71
2023/06/07 03:07:32;;;;;;;6.45;4.63;;;17.60;99.90;;;;;;4937943;28;20166;-70
2023/06/07 03:09:58;;;;;;;5.22;4.75;;;17.50;99.90;;;;;;4935680;28;20491;-70
2023/06/07 03:12:23;;;;;;;6.90;5.53;;;17.50;99.90;;;;;;4939034;28;20038;-71
2023/06/07 03:14:49;;;;;;;5.70;5.20;;;17.50;99.90;;;;;;4930879;28;20046;-65
2023/06/07 03:17:17;;;;;;;6.18;5.57;;;17.50;99.90;;;;;;4932234;28;20115;-65
2023/06/07 03:19:43;;;;;;;6.50;6.00;;;17.60;99.90;;;;;;4931801;28;20045;-65
2023/06/07 03:22:08;;;;;;;7.47;6.57;;;17.50;99.90;;;;;;4929858;28;20081;-65
2023/06/07 03:24:36;;;;;;;6.68;5.72;;;17.60;99.90;;;;;;4930257;28;20459;-65
2023/06/07 03:27:05;;;;;;;5.20;4.70;;;17.60;99.90;;;;;;4934329;28;20030;-67
2023/06/07 03:29:31;;;;;;;7.60;5.32;;;17.50;99.90;;;;;;4934689;28;20031;-66
2023/06/07 03:31:57;;;;;;;5.57;5.10;;;17.50;99.90;;;;;;4934003;28;20406;-66
2023/06/07 03:34:23;;;;;;;5.15;4.65;;;17.50;99.90;;;;;;4933989;28;20570;-65
2023/06/07 03:36:49;;;;;;;4.93;4.43;;;17.50;99.90;;;;;;4933129;28;20130;-66
2023/06/07 03:39:15;;;;;;;5.90;5.28;;;17.50;99.90;;;;;;4932991;28;20027;-65
2023/06/07 03:41:41;;;;;;;5.40;4.85;;;17.50;99.90;;;;;;4933225;28;20051;-65
2023/06/07 03:44:06;;;;;;;6.20;5.20;;;17.60;99.90;;;;;;4930225;28;20507;-66
2023/06/07 03:46:32;;;;;;;8.43;5.00;;;17.60;99.90;;;;;;4934114;28;20035;-66
2023/06/07 03:48:57;;;;;;;5.85;5.35;;;17.60;99.90;;;;;;4933970;28;20574;-65
2023/06/07 03:51:23;;;;;;;5.50;5.10;;;17.60;99.90;;;;;;4931005;28;20038;-66
2023/06/07 03:53:49;;;;;;;5.68;5.03;;;17.60;99.90;;;;;;4931994;28;20043;-71
2023/06/07 03:56:15;;;;;;;5.65;4.88;;;17.60;99.90;;;;;;4941950;28;20134;-72
2023/06/07 03:58:40;;;;;;;5.72;5.13;;;17.60;99.90;;;;;;4946349;28;20049;-70
2023/06/07 04:01:06;;;;;;;5.38;4.88;;;17.60;99.90;;;;;;4944069;28;20098;-70
2023/06/07 04:03:32;;;;;;;6.15;5.65;;;17.60;99.90;;;;;;4941133;28;20024;-71
2023/06/07 04:05:58;;;;;;;7.35;5.05;;;17.60;99.90;;;;;;4949108;28;20456;-70
2023/06/07 04:08:24;;;;;;;6.18;5.68;;;17.70;99.90;;;;;;4945216;28;20034;-70
2023/06/07 04:10:50;;;;;;;6.13;5.03;;;17.70;99.90;;;;;;4943361;28;20023;-71
2023/06/07 04:13:16;;;;;;;5.82;5.20;;;17.70;99.90;;;;;;4942802;28;20030;-71
2023/06/07 04:15:42;;;;;;;5.47;4.85;;;17.70;99.90;;;;;;4946146;28;20184;-67
2023/06/07 04:18:08;;;;;;;7.25;6.47;;;17.80;99.90;;;;;;4947647;28;20035;-70
2023/06/07 04:20:33;;;;;;;13.43;8.82;;;17.80;99.90;;;;;;4949212;28;20054;-70
2023/06/07 04:23:00;;;;;;;12.68;10.40;;;17.80;99.90;;;;;;4946165;28;20015;-70
2023/06/07 04:25:33;;;;;;;16.75;10.73;;;17.80;99.90;;;;;;4942639;28;20432;-70
2023/06/07 04:28:02;;;;;;;15.38;10.38;;;17.80;99.90;;;;;;4944914;28;20046;-70
2023/06/07 04:30:34;;;;;;;14.82;10.80;;;17.80;99.90;;;;;;4944613;28;20062;-71
2023/06/07 04:33:09;;;;;;;19.80;10.82;;;17.80;99.90;;;;;;4943773;28;20055;-69
2023/06/07 04:35:36;;;;;;;14.85;10.00;;;17.80;99.90;;;;;;4944075;28;20370;-70
2023/06/07 04:38:02;;;;;;;16.70;10.52;;;17.90;99.90;;;;;;4940927;28;20062;-70
2023/06/07 04:40:30;;;;;;;16.33;9.95;;;17.90;99.90;;;;;;4941524;28;20063;-70
2023/06/07 04:43:05;;;;;;;15.32;10.50;;;17.90;99.90;;;;;;4945327;28;20027;-70
2023/06/07 04:45:36;;;;;;;17.83;12.65;;;17.90;99.90;;;;;;4936099;28;20043;-69
2023/06/07 04:48:04;;;;;;;14.90;11.80;;;17.90;99.90;;;;;;4934626;28;20038;-69
2023/06/07 04:50:30;;;;;;;14.10;9.70;;;17.80;99.90;;;;;;4933438;28;20058;-66
2023/06/07 04:53:03;;;;;;;11.43;10.20;;;17.90;99.90;;;;;;4930099;28;20506;-66
2023/06/07 04:55:34;;;;;;;14.77;11.07;;;17.90;99.90;;;;;;4928633;28;20103;-66
2023/06/07 04:58:04;;;;;;;13.20;10.55;;;17.90;99.90;;;;;;4932760;28;20039;-65
2023/06/07 05:00:30;;;;;;;16.15;10.77;;;17.90;99.90;;;;;;4938562;28;20043;-65
2023/06/07 05:02:57;;;;;;;14.50;10.77;;;17.90;99.90;;;;;;4935587;28;20034;-66
2023/06/07 05:05:22;;;;;;;11.52;9.45;;;18.00;99.90;;;;;;4936448;28;20146;-65
2023/06/07 05:07:49;;;;;;;13.75;9.82;;;17.90;99.90;;;;;;4934545;28;20410;-65
2023/06/07 05:10:17;;;;;;;10.80;9.57;;;18.00;99.90;;;;;;4937310;28;20125;-66
2023/06/07 05:12:43;;;;;;;10.75;9.60;;;18.00;99.90;;;;;;4940129;28;20081;-66
2023/06/07 05:15:09;;;;;;;16.08;10.07;;;18.00;99.90;;;;;;4930643;28;20039;-65
2023/06/07 05:17:36;;;;;;;10.00;8.77;;;18.00;99.90;;;;;;4937411;28;20511;-65
2023/06/07 05:20:05;;;;;;;10.73;8.68;;;18.00;99.90;;;;;;4937325;28;20207;-66
2023/06/07 05:22:31;;;;;;;9.07;7.82;;;17.90;99.90;;;;;;4935905;28;20031;-65
2023/06/07 05:24:56;;;;;;;10.27;8.20;;;17.90;99.90;;;;;;4937859;28;20038;-65
2023/06/07 05:27:22;;;;;;;11.57;7.50;;;17.90;99.90;;;;;;4940364;28;20039;-66
2023/06/07 05:29:48;;;;;;;10.48;7.25;;;17.80;99.90;;;;;;4929521;28;20035;-65
2023/06/07 05:32:13;;;;;;;10.43;7.78;;;17.80;99.90;;;;;;4923394;28;20725;-65
2023/06/07 05:34:39;;;;;;;9.68;7.15;;;17.80;99.90;;;;;;4934792;28;20043;-64
2023/06/07 05:37:05;;;;;;;7.90;6.88;;;17.80;99.90;;;;;;4942067;28;20027;-64
2023/06/07 05:39:30;;;;;;;7.07;6.47;;;17.80;99.90;;;;;;4936601;28;20039;-64
2023/06/07 05:41:56;;;;;;;8.45;6.93;;;17.90;99.90;;;;;;4937573;28;20135;-64
2023/06/07 05:44:22;;;;;;;9.45;7.03;;;17.90;99.90;;;;;;4936164;28;20392;-65
2023/06/07 05:46:47;;;;;;;7.53;6.35;;;18.00;99.90;;;;;;4938043;28;20028;-65
2023/06/07 05:49:13;;;;;;;10.52;6.55;;;18.00;99.90;;;;;;4940511;28;20493;-70
2023/06/07 05:51:38;;;;;;;6.43;5.55;;;18.00;99.90;;;;;;4939118;28;20201;-70
2023/06/07 05:54:07;;;;;;;9.32;6.47;;;18.00;99.90;;;;;;4937566;28;20539;-70
2023/06/07 05:56:33;;;;;;;8.10;6.18;;;18.00;99.90;;;;;;4933251;28;20070;-70
2023/06/07 05:58:58;;;;;;;7.40;6.15;;;18.00;99.90;;;;;;4938639;28;20408;-70
2023/06/07 06:01:24;;;;;;;7.80;6.63;;;18.00;99.90;;;;;;4934327;28;20035;-70
2023/06/07 06:03:50;;;;;;;6.45;5.60;;;18.00;99.90;;;;;;4939269;28;20035;-70
2023/06/07 06:06:17;;;;;;;7.28;5.70;;;18.00;99.90;;;;;;4936381;28;20031;-70
2023/06/07 06:08:44;;;;;;;7.18;5.75;;;18.00;99.90;;;;;;4937202;28;20019;-70
2023/06/07 06:11:11;;;;;;;7.68;5.50;;;18.00;99.90;;;;;;4938713;28;20023;-70
2023/06/07 06:13:37;;;;;;;6.88;5.20;;;18.00;99.90;;;;;;4940760;28;20090;-70
2023/06/07 06:16:03;;;;;;;11.60;5.72;;;18.00;99.90;;;;;;4941761;28;20038;-70
2023/06/07 06:18:28;;;;;;;7.40;5.03;;;18.00;99.90;;;;;;4935906;28;20027;-70
2023/06/07 06:20:54;;;;;;;6.30;5.50;;;18.10;99.90;;;;;;4930885;28;20050;-69
2023/06/07 06:23:20;;;;;;;9.55;5.40;;;18.10;99.90;;;;;;4931722;28;20066;-69
2023/06/07 06:25:46;;;;;;;6.03;5.32;;;18.10;99.90;;;;;;4934009;28;20047;-65
2023/06/07 06:28:12;;;;;;;5.18;4.32;;;18.10;99.90;;;;;;4940336;28;20031;-64
2023/06/07 06:30:38;;;;;;;7.88;4.95;;;18.10;99.90;;;;;;4936797;28;20058;-64
2023/06/07 06:33:03;;;;;;;6.72;4.88;;;18.10;99.90;;;;;;4936148;28;20031;-65
2023/06/07 06:35:32;;;;;;;9.18;5.15;;;18.10;99.90;;;;;;4941422;28;20441;-65
2023/06/07 06:38:01;;;;;;;6.97;4.63;;;18.10;99.90;;;;;;4923311;28;20039;-65
2023/06/07 06:40:27;;;;;;;6.55;5.05;;;18.10;99.90;;;;;;4938278;28;20546;-65
2023/06/07 06:42:53;;;;;;;6.68;5.00;;;18.20;99.90;;;;;;4943682;28;20050;-65
2023/06/07 06:45:19;;;;;;;5.95;4.25;;;18.20;99.90;;;;;;4939713;28;20549;-69
2023/06/07 06:47:45;;;;;;;6.85;4.43;;;18.30;99.90;;;;;;4930643;28;20031;-70
2023/06/07 06:50:14;;;;;;;5.88;4.20;;;18.30;99.90;;;;;;4928312;28;20042;-69
2023/06/07 06:52:41;;;;;;;7.32;4.60;;;18.30;99.90;;;;;;4933343;28;20028;-69
2023/06/07 06:55:08;;;;;;;8.40;4.82;;;18.30;99.90;;;;;;4943265;28;20049;-70
2023/06/07 06:57:33;;;;;;;7.43;4.50;;;18.30;99.90;;;;;;4947425;28;20031;-69
2023/06/07 07:00:00;;;;;;;4.55;4.15;;;18.30;99.90;;;;;;4932280;28;20024;-70
2023/06/07 07:02:26;;;;;;;6.20;3.95;;;18.30;99.90;;;;;;4940893;28;20102;-70
2023/06/07 07:04:53;;;;;;;7.93;4.00;;;18.40;99.90;;;;;;4944426;28;20335;-64
2023/06/07 07:07:18;;;;;;;7.72;3.88;;;18.40;99.90;;;;;;4937884;28;20027;-64
2023/06/07 07:09:44;;;;;;;9.40;4.15;;;18.40;99.90;;;;;;4941126;28;20034;-65
2023/06/07 07:12:11;;;;;;;6.65;4.32;;;18.40;99.90;;;;;;4942603;28;20527;-65
2023/06/07 07:14:37;;;;;;;4.40;3.75;;;18.40;99.90;;;;;;4939770;28;20532;-64
2023/06/07 07:17:03;;;;;;;4.97;3.42;;;18.40;99.90;;;;;;4930688;28;20096;-64
2023/06/07 07:19:29;;;;;;;6.00;3.92;;;18.40;99.90;;;;;;4929704;28;20039;-64
2023/06/07 07:21:55;;;;;;;4.72;3.45;;;18.40;99.90;;;;;;4928665;28;20043;-64
2023/06/07 07:24:20;;;;;;;4.40;3.58;;;18.40;99.90;;;;;;4930348;28;20035;-64
2023/06/07 07:26:46;;;;;;;6.22;3.90;;;18.40;99.90;;;;;;4930174;28;20034;-64
2023/06/07 07:29:11;;;;;;;4.50;3.72;;;18.40;99.90;;;;;;4932597;28;20070;-65
2023/06/07 07:31:39;;;;;;;5.03;3.33;;;18.50;99.90;;;;;;4933420;28;20563;-64
2023/06/07 07:34:05;;;;;;;4.13;3.13;;;18.50;99.90;;;;;;4935571;28;20476;-64
2023/06/07 07:36:33;;;;;;;9.27;3.40;;;18.60;99.90;;;;;;4933109;28;20110;-64
2023/06/07 07:39:04;;;;;;;8.57;3.60;;;18.60;99.90;;;;;;4936251;28;20059;-64
2023/06/07 07:41:33;;;;;;;3.80;3.40;;;18.60;99.90;;;;;;4925304;28;20309;-64
2023/06/07 07:43:59;;;;;;;6.35;3.50;;;18.70;99.90;;;;;;4935632;28;20057;-70
2023/06/07 07:46:25;;;;;;;7.07;3.20;;;18.80;99.90;;;;;;4934554;28;20035;-69
2023/06/07 07:48:51;;;;;;;4.00;3.05;;;18.80;99.90;;;;;;4937565;28;20086;-69
2023/06/07 07:51:16;;;;;;;4.90;2.92;;;18.80;99.90;;;;;;4935758;28;20153;-69
2023/06/07 07:53:42;;;;;;;3.42;3.13;;;18.80;99.90;;;;;;4941552;28;20486;-69
2023/06/07 07:56:08;;;;;;;6.25;3.40;;;18.90;99.90;;;;;;4936570;28;20039;-70
2023/06/07 07:58:35;;;;;;;3.15;2.40;;;18.80;99.90;;;;;;4940527;28;20555;-70
2023/06/07 08:01:01;;;;;;;4.30;2.83;;;18.80;99.90;;;;;;4935252;28;20046;-70
2023/06/07 08:03:28;;;;;;;3.67;2.80;;;18.80;99.90;;;;;;4938870;28;20035;-70
2023/06/07 08:05:54;;;;;;;7.10;3.40;;;18.90;99.90;;;;;;4935231;28;20318;-70
2023/06/07 08:08:19;;;;;;;3.30;3.00;;;19.00;99.90;;;;;;4932754;28;20471;-70
2023/06/07 08:10:46;;;;;;;3.35;2.88;;;19.00;99.90;;;;;;4937636;28;20127;-70
2023/06/07 08:13:12;;;;;;;3.53;2.90;;;19.00;99.90;;;;;;4940511;28;20032;-69
2023/06/07 08:15:38;;;;;;;4.70;2.83;;;19.10;99.90;;;;;;4939630;28;20035;-69
2023/06/07 08:18:04;;;;;;;4.55;2.45;;;19.20;99.90;;;;;;4936137;28;20110;-69
2023/06/07 08:20:30;;;;;;;3.30;2.97;;;19.30;99.90;;;;;;4938006;28;20375;-70
2023/06/07 08:22:56;;;;;;;7.20;3.17;;;19.30;99.90;;;;;;4937803;28;20530;-70
2023/06/07 08:25:22;;;;;;;4.30;3.13;;;19.30;99.90;;;;;;4935941;28;20111;-70
2023/06/07 08:27:48;;;;;;;3.53;2.90;;;19.40;99.90;;;;;;4935549;28;20866;-69
2023/06/07 08:30:14;;;;;;;4.35;3.10;;;19.50;99.90;;;;;;4926005;28;20385;-69
2023/06/07 08:32:41;;;;;;;6.40;3.00;;;19.60;99.90;;;;;;4936239;28;20107;-70
2023/06/07 08:35:10;;;;;;;4.93;2.60;;;19.70;99.90;;;;;;4937378;28;20035;-69
2023/06/07 08:37:36;;;;;;;4.53;3.17;;;19.70;99.90;;;;;;4935223;28;20032;-69
2023/06/07 08:40:04;;;;;;;4.50;3.03;;;19.70;99.90;;;;;;4935633;28;20385;-69
2023/06/07 08:42:30;;;;;;;4.35;3.00;;;19.80;99.90;;;;;;4938364;28;20078;-70
2023/06/07 08:44:55;;;;;;;4.85;3.17;;;19.80;99.90;;;;;;4935313;28;20134;-70
2023/06/07 08:47:25;;;;;;;5.07;3.60;;;19.80;99.90;;;;;;4934329;28;20216;-69
2023/06/07 08:49:55;;;;;;;4.18;3.30;;;19.80;99.90;;;;;;4934818;28;20032;-68
2023/06/07 08:52:23;;;;;;;7.40;3.47;;;19.80;99.90;;;;;;4931011;28;20054;-69
2023/06/07 08:54:49;;;;;;;4.25;3.38;;;19.80;99.90;;;;;;4941102;28;20065;-69
2023/06/07 08:57:16;;;;;;;2.97;2.67;;;19.80;99.90;;;;;;4938501;28;20037;-64
2023/06/07 08:59:45;;;;;;;5.90;3.28;;;19.80;99.90;;;;;;4941841;28;20602;-64
2023/06/07 09:02:12;;;;;;;3.45;3.10;;;19.80;99.90;;;;;;4936630;28;20114;-64
2023/06/07 09:04:39;;;;;;;4.35;3.05;;;19.80;99.90;;;;;;4932750;28;20499;-64
2023/06/07 09:07:07;;;;;;;4.10;3.30;;;19.80;99.90;;;;;;4928776;28;20146;-64
2023/06/07 09:09:34;;;;;;;3.85;3.28;;;19.90;99.90;;;;;;4941820;28;20094;-64
2023/06/07 09:12:00;;;;;;;5.40;3.50;;;19.80;99.90;;;;;;4941965;28;20035;-63
2023/06/07 09:14:28;;;;;;;4.05;3.40;;;19.80;99.90;;;;;;4943294;28;20026;-64
2023/06/07 09:16:55;;;;;;;3.47;3.17;;;19.80;99.90;;;;;;4940928;28;20038;-64
2023/06/07 09:19:37;;;;;;;3.85;3.45;;;19.80;99.90;;;;;;4940762;28;20031;-69
2023/06/07 09:22:05;;;;;;;4.68;3.53;;;19.80;99.90;;;;;;4944427;28;20059;-70
2023/06/07 09:24:31;;;;;;;4.45;2.88;;;19.80;99.90;;;;;;4933986;28;20731;-70
2023/06/07 09:26:58;;;;;;;5.30;3.17;;;19.80;99.90;;;;;;4942294;28;20035;-69
2023/06/07 09:29:27;;;;;;;4.55;3.15;;;19.70;99.90;;;;;;4939767;28;20043;-69
2023/06/07 09:31:54;;;;;;;5.18;3.67;;;19.80;99.90;;;;;;4934250;28;20039;-69
2023/06/07 09:34:22;;;;;;;3.47;3.17;;;19.70;99.90;;;;;;4937160;28;20038;-70
2023/06/07 09:36:50;;;;;;;6.00;3.53;;;19.70;99.90;;;;;;4935511;28;20058;-69
2023/06/07 09:39:23;;;;;;;4.78;3.30;;;19.70;99.90;;;;;;4922912;28;20091;-70
2023/06/07 09:41:55;;;;;;;4.05;3.65;;;19.80;99.90;;;;;;4936634;28;20075;-69
2023/06/07 09:44:31;;;;;;;4.03;3.63;;;19.80;99.90;;;;;;4945403;28;20039;-69
2023/06/07 09:46:58;;;;;;;5.53;3.75;;;19.90;99.90;;;;;;4942374;28;20288;-69
2023/06/07 09:49:28;;;;;;;3.90;3.60;;;20.00;99.90;;;;;;4941800;28;20043;-69
2023/06/07 09:52:13;;;;;;;3.75;3.40;;;20.00;99.90;;;;;;4942575;28;20373;-69
2023/06/07 09:54:40;;;;;;;4.25;3.22;;;20.00;99.90;;;;;;4943844;28;20118;-65
2023/06/07 09:57:10;;;;;;;3.95;3.55;;;20.00;99.90;;;;;;4939161;28;20042;-70
2023/06/07 09:59:37;;;;;;;5.63;4.97;;;20.00;99.90;;;;;;4935247;28;20031;-70
2023/06/07 10:02:26;;;;;;;7.28;4.47;;;20.10;99.90;;;;;;4936868;28;20110;-70
2023/06/07 10:04:52;;;;;;;6.65;4.75;;;20.10;99.90;;;;;;4933090;28;20035;-70
2023/06/07 10:07:21;;;;;;;9.57;4.93;;;20.00;99.90;;;;;;4939023;28;20031;-70
2023/06/07 10:09:52;;;;;;;6.05;4.95;;;19.90;99.90;;;;;;4938420;28;20058;-69
2023/06/07 10:12:21;;;;;;;8.43;4.43;;;19.90;99.90;;;;;;4934617;28;20028;-69
2023/06/07 10:14:47;;;;;;;6.75;5.15;;;19.90;99.90;;;;;;4941911;28;20035;-69
2023/06/07 10:17:15;;;;;;;7.15;5.15;;;19.90;99.90;;;;;;4935829;28;20158;-70
2023/06/07 10:19:42;;;;;;;5.78;4.63;;;19.90;99.90;;;;;;4940142;28;20049;-70
2023/06/07 10:22:14;;;;;;;6.43;5.63;;;19.90;99.90;;;;;;4941623;28;20035;-69
2023/06/07 10:25:09;;;;;;;7.20;5.28;;;19.90;99.90;;;;;;4936725;28;20042;-70
2023/06/07 10:27:50;;;;;;;4.95;4.43;;;20.00;99.90;;;;;;4934554;28;20582;-70
2023/06/07 10:30:19;;;;;;;6.82;4.53;;;20.10;99.90;;;;;;4941605;28;20421;-69
2023/06/07 10:32:46;;;;;;;6.45;4.65;;;20.10;99.90;;;;;;4938779;28;20239;-69
2023/06/07 10:35:12;;;;;;;5.95;4.75;;;20.20;99.90;;;;;;4943144;28;20023;-70
2023/06/07 10:37:40;;;;;;;4.97;4.25;;;20.30;99.90;;;;;;4931862;28;20031;-70
2023/06/07 10:40:10;;;;;;;7.80;4.63;;;20.40;99.90;;;;;;4931517;28;20020;-70
2023/06/07 10:42:44;;;;;;;5.65;4.45;;;20.30;99.90;;;;;;4938891;28;20055;-70
2023/06/07 10:45:15;;;;;;;6.15;4.97;;;20.30;99.90;;;;;;4935940;28;20046;-71
2023/06/07 10:47:41;;;;;;;7.07;5.72;;;20.20;99.90;;;;;;4935264;28;20027;-69
2023/06/07 10:50:07;;;;;;;7.68;6.15;;;20.10;99.90;;;;;;4940404;28;20598;-70
2023/06/07 10:52:33;;;;;;;8.70;6.68;;;20.10;99.90;;;;;;4935626;28;20051;-64
2023/06/07 10:54:58;;;;;;;6.80;6.00;;;20.00;99.90;;;;;;4933252;28;20035;-70
2023/06/07 10:57:35;;;;;;;6.82;6.07;;;20.00;99.90;;;;;;4941910;28;20280;-69
2023/06/07 11:00:28;;;;;;;7.93;6.47;;;19.90;99.90;;;;;;4936690;28;20408;-70
2023/06/07 11:03:16;;;;;;;7.20;6.15;;;19.90;99.90;;;;;;4936884;28;20023;-70
2023/06/07 11:05:53;;;;;;;6.95;5.68;;;19.90;99.90;;;;;;4935911;28;20035;-70
2023/06/07 11:08:33;;;;;;;9.25;6.47;;;19.90;99.90;;;;;;4937622;28;20035;-69
2023/06/07 11:11:18;;;;;;;7.07;5.97;;;19.90;99.90;;;;;;4934103;28;20027;-70
2023/06/07 11:13:47;;;;;;;7.75;5.78;;;19.90;99.90;;;;;;4933582;28;20063;-64
2023/06/07 11:16:24;;;;;;;6.68;5.63;;;20.00;99.90;;;;;;4937434;28;20590;-64
2023/06/07 11:18:55;;;;;;;6.95;5.88;;;20.10;99.90;;;;;;4936991;28;20136;-64
2023/06/07 11:21:21;;;;;;;8.13;5.88;;;20.30;99.90;;;;;;4922925;28;20542;-64
2023/06/07 11:24:12;;;;;;;6.30;5.70;;;20.50;99.90;;;;;;4931021;28;20043;-64
2023/06/07 11:26:38;;;;;;;7.10;5.17;;;20.70;99.90;;;;;;4936168;28;20046;-65
2023/06/07 11:29:05;;;;;;;5.38;4.88;;;20.70;99.90;;;;;;4936587;28;20057;-64
2023/06/07 11:31:31;;;;;;;6.70;5.30;;;20.70;99.90;;;;;;4930565;28;20023;-69
2023/06/07 11:33:57;;;;;;;7.25;5.38;;;20.70;99.90;;;;;;4933296;28;20117;-69
2023/06/07 11:36:23;;;;;;;9.13;6.20;;;20.80;99.90;;;;;;4938676;28;20045;-69
2023/06/07 11:38:49;;;;;;;6.32;5.72;;;20.80;99.90;;;;;;4934814;28;20067;-69
2023/06/07 11:41:15;;;;;;;8.70;5.70;;;20.90;99.90;;;;;;4935486;28;20471;-69
2023/06/07 11:43:40;;;;;;;6.13;4.95;;;20.90;99.90;;;;;;4936107;28;20125;-69
2023/06/07 11:46:06;;;;;;;5.90;5.30;;;20.90;99.90;;;;;;4940672;28;20055;-69
2023/06/07 11:48:32;;;;;;;6.10;5.50;;;21.00;99.90;;;;;;4931777;28;20056;-70
2023/06/07 11:51:01;;;;;;;6.57;5.25;;;21.00;99.90;;;;;;4936948;28;20186;-70
2023/06/07 11:53:28;;;;;;;6.35;4.93;;;21.10;99.90;;;;;;4938702;28;20661;-69
2023/06/07 11:55:55;;;;;;;5.50;4.40;;;21.10;99.90;;;;;;4929282;28;20019;-69
2023/06/07 11:58:22;;;;;;;5.40;4.70;;;21.10;99.90;;;;;;4933384;28;20143;-70
2023/06/07 12:00:49;;;;;;;5.50;4.65;;;20.90;99.90;;;;;;4930033;28;20270;-69
2023/06/07 12:03:16;;;;;;;4.55;4.15;;;20.80;99.90;;;;;;4926727;28;20535;-69
2023/06/07 12:05:44;;;;;;;7.28;5.18;;;20.70;99.90;;;;;;4925083;28;20039;-69
2023/06/07 12:08:13;;;;;;;5.25;4.75;;;20.80;99.90;;;;;;4924570;28;20523;-69
2023/06/07 12:10:38;;;;;;;7.32;4.93;;;20.80;99.90;;;;;;4923394;28;20046;-65
2023/06/07 12:13:16;;;;;;;5.55;4.80;;;20.80;99.90;;;;;;4922953;28;20031;-65
2023/06/07 12:15:53;;;;;;;5.85;4.90;;;20.90;99.90;;;;;;4926784;28;20108;-64
2023/06/07 12:18:30;;;;;;;8.38;6.18;;;21.10;99.90;;;;;;4927538;28;20106;-64
2023/06/07 12:21:10;;;;;;;5.15;4.47;;;21.20;99.90;;;;;;4927133;28;20043;-65
2023/06/07 12:23:37;;;;;;;5.22;4.60;;;21.20;99.90;;;;;;4927232;28;20186;-65
2023/06/07 12:26:10;;;;;;;4.72;4.32;;;21.30;99.90;;;;;;4928313;28;20717;-65
2023/06/07 12:28:37;;;;;;;10.30;4.03;;;21.40;99.90;;;;;;4932092;28;20598;-65
2023/06/07 12:31:03;;;;;;;4.30;3.92;;;21.50;99.90;;;;;;4932648;28;20045;-65
2023/06/07 12:33:29;;;;;;;5.43;4.32;;;21.50;99.90;;;;;;4939478;28;20039;-65
2023/06/07 12:35:58;;;;;;;6.78;4.00;;;21.40;99.90;;;;;;4948439;28;20029;-65
2023/06/07 12:38:24;;;;;;;3.90;3.60;;;21.40;99.90;;;;;;4935283;28;20051;-65
2023/06/07 12:40:50;;;;;;;4.20;3.80;;;21.50;99.90;;;;;;4942056;28;20047;-64
2023/06/07 12:43:16;;;;;;;5.05;3.90;;;21.50;99.90;;;;;;4941635;28;20043;-65
2023/06/07 12:45:41;;;;;;;3.90;3.60;;;21.50;99.90;;;;;;4934756;28;20050;-65
2023/06/07 12:48:07;;;;;;;4.40;3.90;;;21.60;99.90;;;;;;4936276;28;20035;-69